Time;durP1;ratioP1;P1;durP2;ratioP2;P2;SDS_P1;SDS_P2;PMS_P1;PMS_P2;Temp;Humidity;BMP_temperature;BMP_pressure;BME280_temperature;BME280_humidity;BME280_pressure;Samples;Min_cycle;Max_cycle;Signal;HPM_P1;HPM_P2
2021/09/23 00:00:08;;;;;;;4.20;3.33;;;9.30;99.90;;;;;;5057133;28;20083;-80
2021/09/23 00:05:20;;;;;;;3.92;2.90;;;9.20;99.90;;;;;;5057699;28;20040;-80
2021/09/23 00:07:48;;;;;;;4.68;3.25;;;9.10;99.90;;;;;;5056151;28;20037;-79
2021/09/23 00:10:20;;;;;;;8.60;3.70;;;9.10;99.90;;;;;;5030584;28;20044;-80
2021/09/23 00:12:46;;;;;;;3.35;2.67;;;9.00;99.90;;;;;;5053827;28;20029;-80
2021/09/23 00:15:15;;;;;;;6.25;3.60;;;9.10;99.90;;;;;;5055994;28;20033;-80
2021/09/23 00:17:47;;;;;;;4.05;3.25;;;9.10;99.90;;;;;;5051506;28;20029;-80
2021/09/23 00:20:15;;;;;;;5.13;3.70;;;9.00;99.90;;;;;;5035526;28;20032;-80
2021/09/23 00:22:41;;;;;;;7.00;3.83;;;8.90;99.90;;;;;;5032478;28;20045;-80
2021/09/23 00:25:08;;;;;;;5.60;3.47;;;8.80;99.90;;;;;;5054183;28;20036;-79
2021/09/23 00:27:34;;;;;;;4.72;3.45;;;8.70;99.90;;;;;;5056403;28;20036;-79
2021/09/23 00:29:59;;;;;;;4.80;3.25;;;8.70;99.90;;;;;;5053498;28;20458;-80
2021/09/23 00:32:25;;;;;;;4.45;3.03;;;8.70;99.90;;;;;;5054427;28;20052;-79
2021/09/23 00:34:51;;;;;;;5.82;3.65;;;8.60;99.90;;;;;;5055432;28;20031;-79
2021/09/23 00:37:16;;;;;;;4.85;3.60;;;8.60;99.90;;;;;;5057575;28;20084;-79
2021/09/23 00:39:42;;;;;;;8.20;3.50;;;8.50;99.90;;;;;;5056955;28;20067;-79
2021/09/23 00:42:08;;;;;;;4.53;3.58;;;8.50;99.90;;;;;;5055014;28;20609;-80
2021/09/23 00:44:34;;;;;;;7.85;3.80;;;8.50;99.90;;;;;;5055558;28;20025;-80
2021/09/23 00:47:00;;;;;;;4.38;2.88;;;8.50;99.90;;;;;;5038622;28;20037;-80
2021/09/23 00:49:25;;;;;;;4.38;3.20;;;8.60;99.90;;;;;;5054727;28;20053;-79
2021/09/23 00:51:52;;;;;;;4.32;3.05;;;8.60;99.90;;;;;;5055673;28;20094;-79
2021/09/23 00:54:18;;;;;;;4.40;3.13;;;8.50;99.90;;;;;;5053956;28;20025;-79
2021/09/23 00:56:44;;;;;;;3.88;2.88;;;8.60;99.90;;;;;;5056676;28;20075;-79
2021/09/23 00:59:10;;;;;;;4.20;3.28;;;8.60;99.90;;;;;;5036550;28;20033;-80
2021/09/23 01:01:45;;;;;;;4.07;3.22;;;8.60;99.90;;;;;;5049752;28;20044;-80
2021/09/23 01:04:15;;;;;;;4.88;3.10;;;8.60;99.90;;;;;;5037734;28;20067;-80
2021/09/23 01:06:42;;;;;;;3.25;2.95;;;8.60;99.90;;;;;;5056149;28;20040;-80
2021/09/23 01:09:10;;;;;;;6.97;3.38;;;8.60;99.90;;;;;;5056031;28;20040;-79
2021/09/23 01:11:35;;;;;;;4.63;3.70;;;8.60;99.90;;;;;;5055745;28;20025;-79
2021/09/23 01:14:01;;;;;;;6.32;3.28;;;8.60;99.90;;;;;;5053052;28;20029;-79
2021/09/23 01:16:43;;;;;;;3.78;3.38;;;8.60;99.90;;;;;;5056390;28;20033;-80
2021/09/23 01:19:23;;;;;;;5.35;3.58;;;8.60;99.90;;;;;;5055687;28;20037;-79
2021/09/23 01:21:52;;;;;;;6.63;3.45;;;8.60;99.90;;;;;;5013118;28;21284;-79
2021/09/23 01:24:19;;;;;;;5.40;3.80;;;8.60;99.90;;;;;;5012967;28;20038;-79
2021/09/23 01:26:48;;;;;;;3.92;3.25;;;8.60;99.90;;;;;;5035861;28;20517;-80
2021/09/23 01:29:23;;;;;;;4.95;2.92;;;8.60;99.90;;;;;;5034990;28;20029;-80
2021/09/23 01:31:53;;;;;;;6.25;3.50;;;8.60;99.90;;;;;;5036130;28;20018;-79
2021/09/23 01:34:20;;;;;;;3.90;3.17;;;8.60;99.90;;;;;;5034220;28;20096;-80
2021/09/23 01:36:46;;;;;;;4.65;3.38;;;8.60;99.90;;;;;;5035948;28;20053;-79
2021/09/23 01:39:23;;;;;;;3.40;2.88;;;8.60;99.90;;;;;;5019853;28;20030;-80
2021/09/23 01:41:50;;;;;;;3.90;3.13;;;8.60;99.90;;;;;;5026884;28;20061;-80
2021/09/23 01:44:23;;;;;;;4.30;3.53;;;8.60;99.90;;;;;;5031858;28;20076;-79
2021/09/23 01:46:49;;;;;;;5.13;3.40;;;8.60;99.90;;;;;;5032324;28;20029;-80
2021/09/23 01:49:21;;;;;;;3.58;3.20;;;8.60;99.90;;;;;;5035206;28;20033;-81
2021/09/23 01:51:48;;;;;;;6.60;3.50;;;8.50;99.90;;;;;;5028390;28;20399;-79
2021/09/23 01:54:15;;;;;;;4.93;3.60;;;8.50;99.90;;;;;;5014572;28;20044;-80
2021/09/23 01:56:40;;;;;;;6.13;3.30;;;8.50;99.90;;;;;;5016884;28;20037;-79
2021/09/23 01:59:06;;;;;;;6.13;3.70;;;8.50;99.90;;;;;;5034969;28;20399;-80
2021/09/23 02:01:32;;;;;;;5.72;3.38;;;8.50;99.90;;;;;;5029065;28;20650;-80
2021/09/23 02:03:59;;;;;;;5.28;3.35;;;8.50;99.90;;;;;;5037695;28;20062;-80
2021/09/23 02:06:32;;;;;;;5.47;3.40;;;8.40;99.90;;;;;;5030146;28;20091;-80
2021/09/23 02:08:58;;;;;;;5.53;3.53;;;8.30;99.90;;;;;;5019135;28;20034;-80
2021/09/23 02:11:24;;;;;;;4.68;3.88;;;8.30;99.90;;;;;;5001656;28;20093;-79
2021/09/23 02:13:52;;;;;;;4.43;3.25;;;8.10;99.90;;;;;;5012209;28;20030;-80
2021/09/23 02:16:18;;;;;;;4.35;3.15;;;8.10;99.90;;;;;;5039886;28;20033;-79
2021/09/23 02:18:44;;;;;;;6.25;3.92;;;8.00;99.90;;;;;;5032267;28;20030;-79
2021/09/23 02:21:11;;;;;;;6.03;3.95;;;8.00;99.90;;;;;;5031335;28;20117;-79
2021/09/23 02:23:37;;;;;;;7.57;3.58;;;8.00;99.90;;;;;;5013481;28;20114;-80
2021/09/23 02:26:03;;;;;;;5.57;3.97;;;7.90;99.90;;;;;;5051567;28;20093;-80
2021/09/23 02:28:30;;;;;;;3.80;3.25;;;7.90;99.90;;;;;;5038744;28;20034;-80
2021/09/23 02:30:56;;;;;;;6.20;3.13;;;7.90;99.90;;;;;;5036858;28;20103;-79
2021/09/23 02:33:22;;;;;;;8.75;3.85;;;7.90;99.90;;;;;;5021235;28;20034;-80
2021/09/23 02:35:47;;;;;;;4.30;3.15;;;7.90;99.90;;;;;;5032039;28;20115;-80
2021/09/23 02:38:13;;;;;;;4.20;3.22;;;7.90;99.90;;;;;;5037210;28;20053;-80
2021/09/23 02:40:39;;;;;;;3.92;3.40;;;7.90;99.90;;;;;;5037921;28;20116;-80
2021/09/23 02:43:05;;;;;;;9.02;3.60;;;7.80;99.90;;;;;;5015483;28;20021;-80
2021/09/23 02:45:31;;;;;;;4.32;3.15;;;7.80;99.90;;;;;;5037464;28;20522;-80
2021/09/23 02:47:56;;;;;;;4.43;3.25;;;7.70;99.90;;;;;;5038199;28;20041;-79
2021/09/23 02:50:22;;;;;;;3.03;2.60;;;7.70;99.90;;;;;;5035320;28;20045;-79
2021/09/23 02:52:48;;;;;;;6.60;3.88;;;7.70;99.90;;;;;;5038258;28;20041;-80
2021/09/23 02:55:14;;;;;;;9.38;3.17;;;7.70;99.90;;;;;;5038356;28;20052;-80
2021/09/23 02:57:39;;;;;;;4.18;2.80;;;7.70;99.90;;;;;;5035082;28;20037;-79
2021/09/23 03:00:06;;;;;;;4.13;3.10;;;7.70;99.90;;;;;;5029917;28;20038;-80
2021/09/23 03:02:31;;;;;;;4.25;2.88;;;7.70;99.90;;;;;;5034157;28;20037;-79
2021/09/23 03:04:57;;;;;;;4.38;3.13;;;7.80;99.90;;;;;;5031781;28;20573;-80
2021/09/23 03:07:23;;;;;;;4.55;3.05;;;7.80;99.90;;;;;;5037862;28;20044;-79
2021/09/23 03:09:48;;;;;;;5.20;2.90;;;7.80;99.90;;;;;;5029865;28;20034;-80
2021/09/23 03:12:14;;;;;;;2.60;2.40;;;7.80;99.90;;;;;;5034819;28;20121;-80
2021/09/23 03:14:40;;;;;;;5.65;2.70;;;7.80;99.90;;;;;;5035175;28;20088;-79
2021/09/23 03:17:06;;;;;;;2.85;2.50;;;7.80;99.90;;;;;;5038506;28;20038;-81
2021/09/23 03:19:32;;;;;;;3.50;2.72;;;7.80;99.90;;;;;;5021419;28;20434;-80
2021/09/23 03:21:58;;;;;;;3.30;2.90;;;7.90;99.90;;;;;;5037137;28;20041;-79
2021/09/23 03:24:24;;;;;;;9.00;3.60;;;7.80;99.90;;;;;;5038482;28;20507;-80
2021/09/23 03:26:50;;;;;;;4.15;3.38;;;7.90;99.90;;;;;;5034248;28;20407;-79
2021/09/23 03:29:15;;;;;;;5.65;3.33;;;7.80;99.90;;;;;;5037590;28;20038;-80
2021/09/23 03:31:41;;;;;;;4.53;3.38;;;7.90;99.90;;;;;;5037372;28;20034;-80
2021/09/23 03:34:07;;;;;;;4.28;3.30;;;7.80;99.90;;;;;;5038609;28;20021;-79
2021/09/23 03:36:33;;;;;;;5.07;3.20;;;7.80;99.90;;;;;;5014465;28;20373;-80
2021/09/23 03:38:59;;;;;;;6.45;3.47;;;7.80;99.90;;;;;;5030943;28;20559;-80
2021/09/23 03:41:25;;;;;;;5.63;3.28;;;7.80;99.90;;;;;;5034924;28;20034;-79
2021/09/23 03:43:51;;;;;;;3.75;3.08;;;7.80;99.90;;;;;;5038518;28;20304;-80
2021/09/23 03:46:18;;;;;;;5.75;3.50;;;7.70;99.90;;;;;;5017305;28;20044;-80
2021/09/23 03:48:44;;;;;;;4.75;3.30;;;7.70;99.90;;;;;;5009526;28;20180;-79
2021/09/23 03:51:13;;;;;;;4.18;3.10;;;7.60;99.90;;;;;;5035984;28;20037;-80
2021/09/23 03:53:41;;;;;;;3.08;2.70;;;7.70;99.90;;;;;;5020710;28;20026;-80
2021/09/23 03:56:12;;;;;;;5.80;3.53;;;7.60;99.90;;;;;;5020186;28;20034;-80
2021/09/23 03:58:42;;;;;;;4.32;3.20;;;7.70;99.90;;;;;;5035323;28;20034;-79
2021/09/23 04:01:09;;;;;;;5.28;3.45;;;7.60;99.90;;;;;;5029962;28;20052;-80
2021/09/23 04:03:36;;;;;;;5.65;3.08;;;7.60;99.90;;;;;;5014470;28;20032;-80
2021/09/23 04:06:02;;;;;;;4.22;3.30;;;7.50;99.90;;;;;;4996269;28;20505;-80
2021/09/23 04:08:28;;;;;;;5.00;3.72;;;7.50;99.90;;;;;;5029020;28;20025;-80
2021/09/23 04:10:55;;;;;;;7.68;6.20;;;7.50;99.90;;;;;;5030067;28;20034;-80
2021/09/23 04:13:21;;;;;;;8.68;5.65;;;7.50;99.90;;;;;;5036553;28;20041;-80
2021/09/23 04:15:50;;;;;;;4.15;3.40;;;7.50;99.90;;;;;;5017017;28;20559;-79
2021/09/23 04:18:17;;;;;;;5.72;4.32;;;7.50;99.90;;;;;;5024864;28;20034;-80
2021/09/23 04:20:45;;;;;;;5.30;4.00;;;7.50;99.90;;;;;;5034873;28;20033;-79
2021/09/23 04:23:12;;;;;;;5.32;4.03;;;7.40;99.90;;;;;;5018452;28;20126;-80
2021/09/23 04:25:38;;;;;;;5.43;3.90;;;7.50;99.90;;;;;;5019800;28;20565;-80
2021/09/23 04:28:04;;;;;;;5.07;4.03;;;7.50;99.90;;;;;;5008695;28;20038;-79
2021/09/23 04:30:30;;;;;;;7.90;4.47;;;7.40;99.90;;;;;;5022436;28;21415;-79
2021/09/23 04:32:57;;;;;;;5.63;3.92;;;7.40;99.90;;;;;;5021114;28;20029;-80
2021/09/23 04:35:23;;;;;;;5.40;3.67;;;7.40;99.90;;;;;;5008990;28;20132;-80
2021/09/23 04:37:48;;;;;;;7.13;4.07;;;7.40;99.90;;;;;;5018149;28;20089;-80
2021/09/23 04:40:14;;;;;;;5.13;3.35;;;7.40;99.90;;;;;;5013583;28;20087;-80
2021/09/23 04:42:44;;;;;;;6.00;3.72;;;7.40;99.90;;;;;;5034687;28;20032;-79
2021/09/23 04:45:11;;;;;;;4.35;3.08;;;7.40;99.90;;;;;;5027150;28;20048;-80
2021/09/23 04:47:42;;;;;;;5.43;3.58;;;7.40;99.90;;;;;;5035613;28;20029;-81
2021/09/23 04:50:08;;;;;;;4.97;3.67;;;7.40;99.90;;;;;;5018399;28;20507;-80
2021/09/23 04:52:35;;;;;;;4.97;4.00;;;7.40;99.90;;;;;;5022288;28;20030;-80
2021/09/23 04:55:02;;;;;;;5.78;4.10;;;7.40;99.90;;;;;;5035476;28;20220;-80
2021/09/23 04:57:28;;;;;;;5.57;3.95;;;7.40;99.90;;;;;;5026744;28;20025;-80
2021/09/23 05:00:00;;;;;;;5.07;3.83;;;7.40;99.90;;;;;;5019694;28;20038;-80
2021/09/23 05:02:30;;;;;;;5.90;4.03;;;7.40;99.90;;;;;;5037908;28;20036;-79
2021/09/23 05:04:56;;;;;;;6.47;3.35;;;7.40;99.90;;;;;;5033725;28;20451;-80
2021/09/23 05:07:21;;;;;;;6.45;4.78;;;7.40;99.90;;;;;;5018020;28;20033;-79
2021/09/23 05:09:47;;;;;;;4.53;3.83;;;7.40;99.90;;;;;;5035271;28;20026;-80
2021/09/23 05:12:13;;;;;;;5.97;4.07;;;7.40;99.90;;;;;;5035316;28;20088;-79
2021/09/23 05:14:39;;;;;;;5.40;3.80;;;7.40;99.90;;;;;;5035347;28;20407;-79
2021/09/23 05:17:06;;;;;;;5.07;3.47;;;7.40;99.90;;;;;;5036849;28;20025;-80
2021/09/23 05:19:31;;;;;;;6.05;3.90;;;7.30;99.90;;;;;;5036632;28;20565;-80
2021/09/23 05:21:59;;;;;;;5.80;3.95;;;7.30;99.90;;;;;;5034460;28;20042;-79
2021/09/23 05:24:24;;;;;;;5.28;3.63;;;7.30;99.90;;;;;;5033681;28;20033;-79
2021/09/23 05:26:50;;;;;;;5.10;3.58;;;7.30;99.90;;;;;;5013611;28;20061;-80
2021/09/23 05:29:16;;;;;;;5.55;3.63;;;7.30;99.90;;;;;;5030925;28;20033;-80
2021/09/23 05:31:42;;;;;;;9.40;5.75;;;7.30;99.90;;;;;;5030140;28;20080;-79
2021/09/23 05:34:07;;;;;;;8.20;5.30;;;7.30;99.90;;;;;;5023579;28;20034;-79
2021/09/23 05:36:33;;;;;;;7.35;5.43;;;7.30;99.90;;;;;;5030466;28;20117;-80
2021/09/23 05:39:03;;;;;;;10.00;6.22;;;7.30;99.90;;;;;;5028716;28;20052;-79
2021/09/23 05:41:28;;;;;;;6.82;5.30;;;7.30;99.90;;;;;;5033993;28;20037;-78
2021/09/23 05:43:54;;;;;;;7.88;5.30;;;7.30;99.90;;;;;;5034038;28;20020;-79
2021/09/23 05:46:20;;;;;;;7.40;4.68;;;7.30;99.90;;;;;;5026628;28;20105;-79
2021/09/23 05:48:46;;;;;;;6.32;4.82;;;7.30;99.90;;;;;;5030369;28;20065;-79
2021/09/23 05:51:11;;;;;;;7.60;5.10;;;7.30;99.90;;;;;;5028799;28;20029;-79
2021/09/23 05:53:37;;;;;;;6.20;4.65;;;7.40;99.90;;;;;;5032648;28;20030;-79
2021/09/23 05:56:03;;;;;;;6.80;4.60;;;7.50;99.90;;;;;;5033719;28;20037;-79
2021/09/23 05:58:29;;;;;;;5.50;4.25;;;7.60;99.90;;;;;;5019422;28;20029;-79
2021/09/23 06:03:24;;;;;;;6.78;5.13;;;7.80;99.90;;;;;;4988157;28;20116;-79
2021/09/23 06:05:50;;;;;;;7.93;5.63;;;7.80;99.90;;;;;;4977648;28;20485;-79
2021/09/23 06:08:15;;;;;;;8.40;5.40;;;8.00;99.90;;;;;;5002576;28;20058;-80
2021/09/23 06:10:41;;;;;;;8.20;4.95;;;8.20;99.90;;;;;;4979663;28;20044;-80
2021/09/23 06:13:08;;;;;;;8.23;4.85;;;8.50;99.90;;;;;;4957087;28;20031;-80
2021/09/23 06:15:34;;;;;;;7.78;5.10;;;8.70;99.90;;;;;;4973662;28;20051;-79
2021/09/23 06:18:00;;;;;;;8.95;5.20;;;8.90;99.90;;;;;;4969867;28;20152;-80
2021/09/23 06:20:26;;;;;;;6.15;4.50;;;9.00;99.90;;;;;;4981165;28;20056;-78
2021/09/23 06:22:55;;;;;;;6.40;4.45;;;9.10;99.90;;;;;;4937174;28;20035;-80
2021/09/23 06:25:21;;;;;;;6.03;4.32;;;9.30;99.90;;;;;;4951094;28;20468;-80
2021/09/23 06:27:47;;;;;;;5.90;4.35;;;9.30;99.90;;;;;;4972573;28;20678;-82
2021/09/23 06:30:14;;;;;;;7.72;3.85;;;9.60;99.90;;;;;;4966480;28;20032;-81
2021/09/23 06:32:40;;;;;;;7.72;4.50;;;9.80;99.90;;;;;;4960575;28;20040;-79
2021/09/23 06:35:07;;;;;;;9.52;4.75;;;10.10;99.90;;;;;;4969683;28;20107;-80
2021/09/23 06:37:35;;;;;;;12.20;4.28;;;10.40;99.90;;;;;;4954146;28;20065;-79
2021/09/23 06:40:01;;;;;;;5.97;4.43;;;10.80;99.90;;;;;;4960986;28;20058;-81
2021/09/23 06:42:27;;;;;;;5.35;4.13;;;11.00;99.90;;;;;;4957709;28;20438;-79
2021/09/23 06:44:52;;;;;;;5.63;4.38;;;11.10;99.90;;;;;;4963044;28;20505;-81
2021/09/23 06:47:18;;;;;;;10.05;4.25;;;11.00;99.90;;;;;;4928754;29;20043;-81
2021/09/23 06:49:44;;;;;;;7.40;3.92;;;11.10;99.90;;;;;;4970478;28;20051;-81
2021/09/23 06:52:10;;;;;;;7.05;3.83;;;11.40;99.90;;;;;;4965166;28;20397;-80
2021/09/23 06:54:36;;;;;;;7.72;4.40;;;11.50;99.90;;;;;;4973469;28;20039;-81
2021/09/23 06:57:01;;;;;;;5.65;4.20;;;11.70;99.90;;;;;;4972764;28;20039;-82
2021/09/23 06:59:27;;;;;;;7.88;3.72;;;11.90;99.90;;;;;;4982051;28;20043;-80
2021/09/23 07:01:54;;;;;;;6.35;4.30;;;12.10;99.90;;;;;;4978264;28;20034;-80
2021/09/23 07:04:38;;;;;;;6.55;4.30;;;12.40;99.90;;;;;;4957783;28;20027;-82
2021/09/23 07:07:10;;;;;;;4.57;3.65;;;12.70;99.90;;;;;;4969519;28;20043;-82
2021/09/23 07:09:39;;;;;;;6.78;4.38;;;12.90;99.90;;;;;;4978538;28;20063;-80
2021/09/23 07:12:13;;;;;;;6.50;4.30;;;13.00;99.90;;;;;;4970531;28;20027;-81
2021/09/23 07:14:40;;;;;;;4.57;3.78;;;13.00;99.90;;;;;;4974259;28;20374;-81
2021/09/23 07:17:05;;;;;;;5.55;4.07;;;13.20;99.90;;;;;;4953252;28;20391;-80
2021/09/23 07:19:32;;;;;;;6.72;4.20;;;13.20;99.90;;;;;;4941278;29;20039;-80
2021/09/23 07:21:58;;;;;;;9.68;4.60;;;13.40;99.90;;;;;;4949831;28;20374;-80
2021/09/23 07:24:25;;;;;;;6.55;3.70;;;13.50;99.90;;;;;;4970993;28;20028;-79
2021/09/23 07:26:51;;;;;;;8.85;3.72;;;13.70;99.90;;;;;;4956452;28;20045;-80
2021/09/23 07:29:18;;;;;;;5.13;3.63;;;13.40;99.90;;;;;;4953880;28;20039;-81
2021/09/23 07:31:44;;;;;;;6.57;4.00;;;13.80;99.90;;;;;;4976022;28;20039;-80
2021/09/23 07:34:11;;;;;;;5.40;3.60;;;13.90;99.90;;;;;;4967212;28;20086;-79
2021/09/23 07:36:37;;;;;;;7.07;3.53;;;13.90;99.90;;;;;;4975314;28;20030;-80
2021/09/23 07:39:07;;;;;;;5.18;3.55;;;14.10;99.90;;;;;;4969718;28;20401;-78
2021/09/23 07:41:38;;;;;;;5.25;3.30;;;14.30;99.90;;;;;;4956490;28;20031;-78
2021/09/23 07:44:09;;;;;;;5.88;3.70;;;14.60;99.90;;;;;;4965743;28;20091;-78
2021/09/23 07:46:35;;;;;;;7.82;4.13;;;14.80;99.90;;;;;;4973071;28;20555;-79
2021/09/23 07:49:02;;;;;;;7.88;4.20;;;14.90;99.90;;;;;;4960689;28;20393;-78
2021/09/23 07:51:28;;;;;;;7.28;4.10;;;14.80;99.90;;;;;;4963443;28;20127;-80
2021/09/23 07:53:54;;;;;;;7.15;3.35;;;14.70;99.90;;;;;;4965517;28;20207;-79
2021/09/23 07:56:20;;;;;;;7.00;3.88;;;14.50;99.90;;;;;;4965127;28;20396;-79
2021/09/23 07:58:46;;;;;;;8.43;3.95;;;14.40;99.90;;;;;;4975928;28;20085;-80
2021/09/23 08:01:11;;;;;;;4.55;3.35;;;14.50;99.90;;;;;;4965461;28;20031;-79
2021/09/23 08:03:37;;;;;;;8.10;4.35;;;14.20;99.90;;;;;;4946031;28;20033;-80
2021/09/23 08:06:03;;;;;;;5.90;4.10;;;14.50;99.90;;;;;;4978420;28;20032;-78
2021/09/23 08:08:29;;;;;;;8.32;4.40;;;14.60;99.90;;;;;;4964004;28;20031;-80
2021/09/23 08:10:55;;;;;;;8.82;4.10;;;14.50;99.90;;;;;;4979101;28;20692;-80
2021/09/23 08:13:22;;;;;;;8.00;3.83;;;14.50;99.90;;;;;;4952441;28;20110;-79
2021/09/23 08:15:48;;;;;;;7.57;3.78;;;14.60;99.90;;;;;;4955307;28;20027;-80
2021/09/23 08:18:52;;;;;;;6.38;3.80;;;14.80;99.90;;;;;;4965707;28;20035;-78
2021/09/23 08:21:37;;;;;;;4.30;3.65;;;14.90;99.90;;;;;;4949285;28;20102;-80
2021/09/23 08:24:03;;;;;;;5.38;3.40;;;15.00;99.90;;;;;;4966394;28;20023;-80
2021/09/23 08:26:29;;;;;;;4.72;3.22;;;15.10;99.90;;;;;;4975685;28;20023;-80
2021/09/23 08:28:55;;;;;;;5.07;3.47;;;15.10;99.90;;;;;;4976755;28;20035;-80
2021/09/23 08:31:22;;;;;;;6.75;3.75;;;15.10;99.90;;;;;;4980447;28;20113;-80
2021/09/23 08:33:54;;;;;;;6.13;3.72;;;15.10;99.90;;;;;;4959817;28;20027;-79
2021/09/23 08:36:20;;;;;;;4.97;3.33;;;15.10;99.90;;;;;;4974047;28;20138;-80
2021/09/23 08:38:47;;;;;;;5.22;3.70;;;15.10;99.90;;;;;;4979672;28;20034;-79
2021/09/23 08:41:14;;;;;;;6.32;4.20;;;15.10;99.90;;;;;;4980979;28;20038;-80
2021/09/23 08:43:40;;;;;;;7.15;2.92;;;15.10;99.90;;;;;;4974184;28;20022;-79
2021/09/23 08:46:06;;;;;;;5.30;2.97;;;15.10;99.90;;;;;;4968650;28;20690;-79
2021/09/23 08:48:34;;;;;;;3.40;2.50;;;15.10;99.90;;;;;;4975946;28;20500;-79
2021/09/23 08:51:01;;;;;;;5.38;2.50;;;15.00;99.90;;;;;;4967394;28;20054;-78
2021/09/23 08:53:28;;;;;;;3.28;2.40;;;15.10;99.90;;;;;;4938887;28;20450;-80
2021/09/23 08:55:54;;;;;;;4.07;2.15;;;15.10;99.90;;;;;;4971481;28;20028;-82
2021/09/23 08:58:20;;;;;;;3.35;2.22;;;15.10;99.90;;;;;;4979658;28;20042;-79
2021/09/23 09:01:00;;;;;;;3.88;2.20;;;15.20;99.90;;;;;;4966918;28;20192;-80
2021/09/23 09:03:27;;;;;;;3.25;2.35;;;15.20;99.90;;;;;;4968884;28;20090;-81
2021/09/23 09:06:13;;;;;;;3.17;2.00;;;15.30;99.90;;;;;;4966814;28;20045;-82
2021/09/23 09:08:51;;;;;;;4.38;1.88;;;15.30;99.90;;;;;;4958243;28;20049;-80
2021/09/23 09:11:23;;;;;;;2.50;1.80;;;15.30;99.90;;;;;;4951764;28;20027;-81
2021/09/23 09:13:52;;;;;;;6.28;2.15;;;15.30;99.90;;;;;;4957924;28;20031;-80
2021/09/23 09:16:24;;;;;;;3.28;1.75;;;15.30;99.90;;;;;;4971777;28;20132;-80
2021/09/23 09:18:56;;;;;;;2.05;1.75;;;15.20;99.90;;;;;;4976703;28;20027;-81
2021/09/23 09:21:24;;;;;;;4.40;1.92;;;15.20;99.90;;;;;;4975486;28;20085;-79
2021/09/23 09:23:52;;;;;;;2.20;1.92;;;15.20;99.90;;;;;;4941564;28;20019;-82
2021/09/23 09:26:26;;;;;;;4.13;2.28;;;15.20;99.90;;;;;;4963728;28;20067;-79
2021/09/23 09:28:55;;;;;;;5.35;1.95;;;15.30;99.90;;;;;;4963887;28;20485;-80
2021/09/23 09:31:22;;;;;;;3.53;1.80;;;15.40;99.90;;;;;;4976574;28;20165;-81
2021/09/23 09:33:51;;;;;;;1.80;1.70;;;15.50;99.90;;;;;;4951891;28;20032;-82
2021/09/23 09:36:28;;;;;;;4.10;1.88;;;15.60;99.90;;;;;;4971056;28;20725;-81
2021/09/23 09:38:56;;;;;;;3.97;2.10;;;15.70;99.90;;;;;;4973250;28;20023;-81
2021/09/23 09:41:27;;;;;;;3.88;1.63;;;15.70;99.90;;;;;;4974114;28;20039;-80
2021/09/23 09:43:57;;;;;;;2.22;1.73;;;15.80;99.90;;;;;;4977504;28;20035;-81
2021/09/23 09:46:32;;;;;;;4.30;2.30;;;15.90;99.90;;;;;;4981652;28;20085;-80
2021/09/23 09:48:58;;;;;;;4.35;1.60;;;16.00;99.90;;;;;;4978545;28;20030;-79
2021/09/23 09:51:36;;;;;;;3.30;1.60;;;16.00;99.90;;;;;;4974584;28;20035;-79
2021/09/23 09:54:04;;;;;;;4.22;1.50;;;16.00;99.90;;;;;;4962963;28;20038;-81
2021/09/23 09:56:33;;;;;;;3.65;1.92;;;16.10;99.90;;;;;;4968410;28;20492;-80
2021/09/23 09:59:10;;;;;;;5.13;2.03;;;16.20;99.90;;;;;;4972451;28;20036;-81
2021/09/23 10:01:37;;;;;;;3.03;1.98;;;16.30;99.90;;;;;;4955549;28;20031;-81
2021/09/23 10:04:04;;;;;;;2.42;1.58;;;16.30;99.90;;;;;;4951877;28;20032;-81
2021/09/23 10:06:31;;;;;;;2.88;1.58;;;16.40;99.90;;;;;;4979264;28;20049;-81
2021/09/23 10:08:57;;;;;;;4.00;1.60;;;16.50;99.90;;;;;;4965223;28;20039;-81
2021/09/23 10:11:24;;;;;;;3.88;1.73;;;16.50;99.90;;;;;;4975901;28;20095;-79
2021/09/23 10:13:51;;;;;;;2.88;1.58;;;16.60;99.90;;;;;;4966917;28;20198;-81
2021/09/23 10:16:18;;;;;;;3.35;1.85;;;16.70;99.90;;;;;;4974881;28;20028;-81
2021/09/23 10:18:44;;;;;;;3.50;2.00;;;16.70;99.90;;;;;;4983316;28;20110;-79
2021/09/23 10:21:10;;;;;;;1.98;1.65;;;16.80;99.90;;;;;;4969184;28;20039;-80
2021/09/23 10:23:40;;;;;;;3.10;1.65;;;16.90;99.90;;;;;;4975657;28;20027;-80
2021/09/23 10:26:13;;;;;;;2.80;1.80;;;16.90;99.90;;;;;;4973125;28;20738;-79
2021/09/23 10:28:45;;;;;;;3.67;1.50;;;17.00;99.90;;;;;;4979613;28;20058;-81
2021/09/23 10:31:19;;;;;;;2.25;1.80;;;17.10;99.90;;;;;;4972023;28;20561;-80
2021/09/23 10:33:46;;;;;;;2.97;1.63;;;17.10;99.90;;;;;;4962194;28;20114;-82
2021/09/23 10:36:16;;;;;;;2.95;1.50;;;17.20;99.90;;;;;;4959002;28;20119;-79
2021/09/23 10:38:44;;;;;;;1.92;1.45;;;17.30;99.90;;;;;;4979899;28;20023;-81
2021/09/23 10:41:11;;;;;;;2.13;1.40;;;17.30;99.90;;;;;;4966871;28;20042;-81
2021/09/23 10:43:39;;;;;;;4.57;1.73;;;17.30;99.90;;;;;;4972669;28;20126;-81
2021/09/23 10:46:06;;;;;;;2.40;1.52;;;17.40;99.90;;;;;;4958325;28;20110;-79
2021/09/23 10:48:46;;;;;;;2.30;1.17;;;17.40;99.90;;;;;;4970866;28;20027;-80
2021/09/23 10:51:14;;;;;;;2.22;1.58;;;17.50;99.90;;;;;;4953945;28;20043;-81
2021/09/23 10:53:57;;;;;;;3.25;1.80;;;17.50;99.90;;;;;;4955417;28;20027;-81
2021/09/23 10:56:26;;;;;;;2.20;1.40;;;17.60;99.90;;;;;;4965588;28;20098;-80
2021/09/23 10:58:54;;;;;;;2.55;1.52;;;17.60;99.90;;;;;;4960743;28;20023;-80
2021/09/23 11:01:33;;;;;;;3.63;1.75;;;17.70;99.90;;;;;;4960898;28;20114;-81
2021/09/23 11:04:01;;;;;;;4.15;1.83;;;17.70;99.90;;;;;;4952590;28;20046;-81
2021/09/23 11:06:36;;;;;;;5.68;1.73;;;17.80;99.90;;;;;;4964112;28;20054;-80
2021/09/23 11:09:24;;;;;;;3.53;1.80;;;17.80;99.90;;;;;;4975125;28;20078;-81
2021/09/23 11:12:03;;;;;;;5.13;1.88;;;17.80;99.90;;;;;;4974492;28;20050;-81
2021/09/23 11:14:33;;;;;;;2.95;1.50;;;17.80;99.90;;;;;;4961168;28;20026;-81
2021/09/23 11:17:00;;;;;;;2.72;1.95;;;17.80;99.90;;;;;;4973416;28;20035;-80
2021/09/23 11:19:27;;;;;;;2.40;1.80;;;17.80;99.90;;;;;;4975228;28;20050;-81
2021/09/23 11:21:56;;;;;;;2.70;1.70;;;17.90;99.90;;;;;;4977138;28;20039;-80
2021/09/23 11:24:25;;;;;;;1.60;1.50;;;17.90;99.90;;;;;;4967184;28;20037;-82
2021/09/23 11:26:51;;;;;;;3.08;1.80;;;17.90;99.90;;;;;;4971216;28;20028;-81
2021/09/23 11:29:18;;;;;;;2.38;2.17;;;18.00;99.90;;;;;;4983606;28;20073;-81
2021/09/23 11:31:53;;;;;;;3.30;1.98;;;18.00;99.90;;;;;;4959441;28;20027;-81
2021/09/23 11:34:36;;;;;;;;;;;18.00;99.90;;;;;;4969261;28;20102;-81
2021/09/23 11:37:06;;;;;;;2.85;1.70;;;18.00;99.90;;;;;;4966681;28;19962;-82
2021/09/23 11:39:46;;;;;;;4.15;1.60;;;18.10;99.90;;;;;;4962873;28;20058;-81
2021/09/23 11:42:14;;;;;;;4.00;2.17;;;18.10;99.90;;;;;;4977766;28;20039;-81
2021/09/23 11:44:42;;;;;;;2.53;1.80;;;18.20;99.90;;;;;;4973526;28;20035;-80
2021/09/23 11:47:15;;;;;;;3.63;1.70;;;18.20;99.90;;;;;;4976668;28;20447;-80
2021/09/23 11:49:42;;;;;;;2.88;1.80;;;18.30;99.90;;;;;;4956068;28;20054;-79
2021/09/23 11:52:09;;;;;;;2.50;2.10;;;18.30;99.90;;;;;;4971392;28;20035;-80
2021/09/23 11:54:36;;;;;;;3.13;2.10;;;18.40;99.90;;;;;;4972029;28;20031;-81
2021/09/23 11:57:05;;;;;;;4.63;1.85;;;18.60;99.90;;;;;;4965440;28;20088;-81
2021/09/23 11:59:33;;;;;;;2.83;2.17;;;18.70;99.90;;;;;;4977408;28;20047;-80
2021/09/23 12:02:05;;;;;;;2.80;1.88;;;18.70;99.90;;;;;;4974174;28;20063;-81
2021/09/23 12:04:33;;;;;;;2.47;2.15;;;18.70;99.90;;;;;;4981177;23;20042;-81
2021/09/23 12:06:59;;;;;;;3.40;2.30;;;18.70;99.90;;;;;;4988018;28;20022;-81
2021/09/23 12:09:25;;;;;;;3.08;2.30;;;18.80;99.90;;;;;;5008617;28;20030;-79
2021/09/23 12:11:52;;;;;;;3.10;2.15;;;18.80;99.90;;;;;;4992234;28;20034;-81
2021/09/23 12:14:19;;;;;;;4.13;2.17;;;18.90;99.90;;;;;;5009691;28;20030;-81
2021/09/23 12:16:47;;;;;;;6.82;2.40;;;18.90;99.90;;;;;;4989369;28;20022;-82
2021/09/23 12:19:26;;;;;;;3.65;2.42;;;19.00;99.90;;;;;;4993068;28;20030;-79
2021/09/23 12:21:55;;;;;;;2.60;2.08;;;19.00;99.90;;;;;;4957132;28;20389;-79
2021/09/23 12:24:34;;;;;;;3.90;2.25;;;19.10;99.90;;;;;;4984893;28;20038;-80
2021/09/23 12:27:02;;;;;;;3.85;2.50;;;19.10;99.90;;;;;;5005372;28;20513;-80
2021/09/23 12:29:28;;;;;;;2.65;2.38;;;19.10;99.90;;;;;;4996307;28;20560;-81
2021/09/23 12:32:04;;;;;;;3.35;2.13;;;19.10;99.90;;;;;;4985398;28;20026;-79
2021/09/23 12:34:30;;;;;;;3.45;2.65;;;19.10;99.90;;;;;;4960118;28;20030;-79
2021/09/23 12:37:06;;;;;;;3.97;2.28;;;19.10;99.90;;;;;;4997349;28;20484;-80
2021/09/23 12:39:50;;;;;;;3.00;2.17;;;19.10;99.90;;;;;;4987601;28;20126;-81
2021/09/23 12:42:22;;;;;;;5.00;2.72;;;19.10;99.90;;;;;;4982846;28;20030;-80
2021/09/23 12:45:01;;;;;;;3.42;2.30;;;19.10;99.90;;;;;;4974368;28;20034;-80
2021/09/23 12:47:41;;;;;;;4.63;2.50;;;19.10;99.90;;;;;;4987138;28;20040;-80
2021/09/23 12:50:07;;;;;;;3.35;2.22;;;19.20;99.90;;;;;;4979956;28;20055;-81
2021/09/23 12:52:39;;;;;;;2.50;2.00;;;19.20;99.90;;;;;;4997084;28;20026;-81
2021/09/23 12:55:26;;;;;;;6.47;2.33;;;19.30;99.90;;;;;;4961789;28;20069;-79
2021/09/23 12:57:54;;;;;;;5.95;2.63;;;19.20;99.90;;;;;;5005665;28;20027;-82
2021/09/23 13:00:32;;;;;;;4.60;2.15;;;19.30;99.90;;;;;;4984151;28;20038;-80
2021/09/23 13:03:08;;;;;;;;;;;19.30;99.90;;;;;;4988411;28;20748;-79